Time;durP1;ratioP1;P1;durP2;ratioP2;P2;SDS_P1;SDS_P2;PMS_P1;PMS_P2;Temp;Humidity;BMP_temperature;BMP_pressure;BME280_temperature;BME280_humidity;BME280_pressure;Samples;Min_cycle;Max_cycle;Signal;HPM_P1;HPM_P2
2023/04/08 00:00:33;;;;;;;6.03;5.30;;;9.80;99.90;;;;;;5053801;28;20593;-69
2023/04/08 00:03:19;;;;;;;5.70;5.10;;;9.70;99.90;;;;;;5053309;28;20415;-70
2023/04/08 00:06:04;;;;;;;7.90;4.93;;;9.70;99.90;;;;;;5047663;28;20448;-70
2023/04/08 00:08:50;;;;;;;8.03;4.30;;;9.80;99.90;;;;;;5053392;28;20422;-70
2023/04/08 00:11:36;;;;;;;7.23;5.50;;;9.70;99.90;;;;;;5053439;28;20434;-71
2023/04/08 00:14:23;;;;;;;5.37;4.47;;;9.70;99.90;;;;;;5048045;28;20504;-73
2023/04/08 00:17:09;;;;;;;6.70;5.17;;;9.70;99.90;;;;;;5049519;28;20449;-70
2023/04/08 00:19:55;;;;;;;7.00;4.87;;;9.70;99.90;;;;;;5050177;28;21037;-70
2023/04/08 00:22:41;;;;;;;8.47;5.67;;;9.70;99.90;;;;;;5050066;28;20677;-70
2023/04/08 00:25:26;;;;;;;7.20;5.07;;;9.70;99.90;;;;;;5044827;28;20866;-70
2023/04/08 00:28:12;;;;;;;6.70;4.60;;;9.70;99.90;;;;;;5048474;28;20453;-71
2023/04/08 00:30:59;;;;;;;5.53;4.20;;;9.70;99.90;;;;;;5047475;28;20447;-73
2023/04/08 00:33:45;;;;;;;5.43;4.20;;;9.50;99.90;;;;;;5048760;28;20425;-70
2023/04/08 00:36:31;;;;;;;5.60;4.40;;;9.60;99.90;;;;;;5046577;28;21000;-73
2023/04/08 00:39:16;;;;;;;6.53;4.80;;;9.60;99.90;;;;;;5045279;28;20943;-70
2023/04/08 00:42:02;;;;;;;5.10;4.10;;;9.60;99.90;;;;;;5051087;28;20445;-70
2023/04/08 00:44:48;;;;;;;5.17;4.00;;;9.60;99.90;;;;;;5041485;28;20454;-70
2023/04/08 00:47:36;;;;;;;5.73;4.47;;;9.70;99.90;;;;;;5046124;28;20534;-69
2023/04/08 00:50:21;;;;;;;5.40;4.53;;;9.70;99.90;;;;;;5047649;28;20458;-70
2023/04/08 00:53:07;;;;;;;6.60;4.77;;;9.60;99.90;;;;;;5047950;28;20452;-69
2023/04/08 00:55:52;;;;;;;5.60;4.30;;;9.60;99.90;;;;;;5046745;28;20428;-71
2023/04/08 00:58:39;;;;;;;5.63;5.03;;;9.60;99.90;;;;;;5048765;28;20495;-70
2023/04/08 01:01:32;;;;;;;4.73;4.23;;;9.60;99.90;;;;;;5048536;28;20997;-72
2023/04/08 01:04:29;;;;;;;7.50;4.53;;;9.60;99.90;;;;;;5044003;28;20445;-72
2023/04/08 01:07:18;;;;;;;4.80;3.80;;;9.60;99.90;;;;;;5049284;28;20450;-70
2023/04/08 01:10:11;;;;;;;5.83;4.73;;;9.60;99.90;;;;;;5049805;28;20470;-71
2023/04/08 01:12:59;;;;;;;5.73;4.43;;;9.60;99.90;;;;;;5050259;28;20436;-70
2023/04/08 01:15:45;;;;;;;8.23;4.80;;;9.60;99.90;;;;;;5044443;28;20529;-70
2023/04/08 01:18:35;;;;;;;7.40;5.13;;;9.60;99.90;;;;;;5050367;28;20552;-70
2023/04/08 01:21:23;;;;;;;9.70;5.37;;;9.60;99.90;;;;;;5044080;28;20582;-69
2023/04/08 01:24:16;;;;;;;6.00;4.87;;;9.60;99.90;;;;;;5047701;28;20461;-70
2023/04/08 01:27:05;;;;;;;5.63;5.07;;;9.60;99.90;;;;;;5047573;28;20440;-71
2023/04/08 01:29:51;;;;;;;12.93;4.83;;;9.70;99.90;;;;;;5047400;28;20465;-70
2023/04/08 01:32:37;;;;;;;6.80;5.20;;;9.70;99.90;;;;;;5048139;28;20945;-69
2023/04/08 01:35:24;;;;;;;9.00;4.60;;;9.60;99.90;;;;;;5040801;28;20785;-70
2023/04/08 01:38:14;;;;;;;5.97;4.70;;;9.60;99.90;;;;;;5048260;28;20487;-69
2023/04/08 01:41:00;;;;;;;6.23;4.70;;;9.60;99.90;;;;;;5047029;28;20902;-70
2023/04/08 01:43:48;;;;;;;7.17;5.30;;;9.60;99.90;;;;;;5046962;28;20457;-70
2023/04/08 01:46:35;;;;;;;6.73;5.57;;;9.60;99.90;;;;;;5046732;28;20490;-71
2023/04/08 01:49:22;;;;;;;5.30;4.80;;;9.60;99.90;;;;;;5045922;28;20486;-71
2023/04/08 01:52:10;;;;;;;5.87;5.27;;;9.60;99.90;;;;;;5046653;28;20462;-70
2023/04/08 01:54:56;;;;;;;5.63;4.70;;;9.50;99.90;;;;;;5040748;28;20480;-69
2023/04/08 01:57:45;;;;;;;9.70;5.43;;;9.50;99.90;;;;;;5048134;28;20448;-70
2023/04/08 02:00:34;;;;;;;6.40;4.70;;;9.50;99.90;;;;;;5045383;28;20481;-70
2023/04/08 02:03:24;;;;;;;5.13;4.60;;;9.40;99.90;;;;;;5044164;28;20420;-69
2023/04/08 02:06:09;;;;;;;14.03;5.47;;;9.40;99.90;;;;;;5048157;28;20441;-70
2023/04/08 02:08:55;;;;;;;7.70;5.00;;;9.40;99.90;;;;;;5048205;28;20590;-71
2023/04/08 02:11:41;;;;;;;5.30;4.50;;;9.40;99.90;;;;;;5049154;28;20427;-71
2023/04/08 02:14:28;;;;;;;6.87;5.10;;;9.40;99.90;;;;;;5042009;28;20420;-70
2023/04/08 02:17:29;;;;;;;5.37;4.60;;;9.30;99.90;;;;;;5045040;28;20454;-71
2023/04/08 02:20:19;;;;;;;5.13;4.63;;;9.30;99.90;;;;;;5043065;28;21120;-71
2023/04/08 02:23:09;;;;;;;6.60;4.37;;;9.40;99.90;;;;;;5045732;28;21079;-71
2023/04/08 02:25:57;;;;;;;6.50;5.23;;;9.40;99.90;;;;;;5043810;28;20447;-70
2023/04/08 02:28:43;;;;;;;6.20;3.93;;;9.30;99.90;;;;;;5049205;28;20440;-70
2023/04/08 02:31:29;;;;;;;5.60;4.60;;;9.30;99.90;;;;;;5044896;28;20485;-73
2023/04/08 02:34:17;;;;;;;11.93;5.00;;;9.20;99.90;;;;;;5045228;28;20462;-70
2023/04/08 02:37:03;;;;;;;5.50;4.90;;;9.10;99.90;;;;;;5048551;28;20445;-73
2023/04/08 02:39:49;;;;;;;5.63;4.87;;;9.00;99.90;;;;;;5043799;28;20481;-72
2023/04/08 02:42:35;;;;;;;5.80;4.60;;;9.20;99.90;;;;;;5048548;28;20450;-73
2023/04/08 02:45:21;;;;;;;6.93;5.60;;;9.10;99.90;;;;;;5046238;28;20492;-72
2023/04/08 02:48:07;;;;;;;5.17;4.57;;;9.20;99.90;;;;;;5044047;28;20464;-72
2023/04/08 02:50:54;;;;;;;7.93;5.10;;;9.20;99.90;;;;;;5048239;28;20491;-72
2023/04/08 02:53:40;;;;;;;8.23;3.67;;;9.20;99.90;;;;;;5043819;28;20446;-73
2023/04/08 02:56:25;;;;;;;5.97;4.90;;;9.20;99.90;;;;;;5046178;28;20453;-72
2023/04/08 02:59:11;;;;;;;4.90;4.40;;;9.30;99.90;;;;;;5048098;28;20420;-72
2023/04/08 03:01:56;;;;;;;10.43;4.93;;;9.20;99.90;;;;;;5047434;28;20454;-71
2023/04/08 03:04:42;;;;;;;6.10;3.90;;;9.20;99.90;;;;;;5045300;28;20450;-72
2023/04/08 03:07:29;;;;;;;6.00;4.63;;;9.30;99.90;;;;;;5044241;28;20423;-72
2023/04/08 03:10:15;;;;;;;5.80;4.10;;;9.20;99.90;;;;;;5048973;28;20547;-72
2023/04/08 03:13:00;;;;;;;7.00;3.87;;;9.20;99.90;;;;;;5046855;28;20444;-72
2023/04/08 03:15:46;;;;;;;4.90;4.40;;;9.20;99.90;;;;;;5047236;28;20937;-72
2023/04/08 03:18:32;;;;;;;6.03;4.37;;;9.10;99.90;;;;;;5048030;28;20467;-70
2023/04/08 03:21:18;;;;;;;5.13;4.40;;;9.20;99.90;;;;;;5045225;28;20505;-72
2023/04/08 03:24:05;;;;;;;4.60;3.97;;;9.20;99.90;;;;;;5044702;28;20981;-73
2023/04/08 03:26:51;;;;;;;5.03;4.00;;;9.20;99.90;;;;;;5048768;28;20557;-71
2023/04/08 03:29:37;;;;;;;5.33;4.03;;;9.20;99.90;;;;;;5047855;28;20469;-72
2023/04/08 03:32:23;;;;;;;4.47;3.77;;;9.20;99.90;;;;;;5043384;28;20424;-73
2023/04/08 03:35:09;;;;;;;3.87;3.20;;;9.10;99.90;;;;;;5045133;28;20445;-72
2023/04/08 03:37:55;;;;;;;5.40;4.63;;;9.10;99.90;;;;;;5046075;28;20607;-72
2023/04/08 03:40:42;;;;;;;4.40;3.90;;;9.10;99.90;;;;;;5048700;28;20484;-73
2023/04/08 03:43:27;;;;;;;5.17;4.00;;;9.10;99.90;;;;;;5040218;28;20443;-73
2023/04/08 03:46:13;;;;;;;5.27;4.30;;;9.10;99.90;;;;;;5047409;28;20445;-73
2023/04/08 03:48:58;;;;;;;4.10;3.50;;;9.10;99.90;;;;;;5043052;28;20536;-73
2023/04/08 03:51:44;;;;;;;8.13;4.17;;;9.20;99.90;;;;;;5046761;28;20582;-71
2023/04/08 03:54:29;;;;;;;5.03;4.10;;;9.10;99.90;;;;;;5045012;28;20451;-73
2023/04/08 03:57:16;;;;;;;4.50;3.43;;;9.10;99.90;;;;;;5045444;28;20472;-72
2023/04/08 04:00:02;;;;;;;5.30;3.83;;;9.10;99.90;;;;;;5042374;28;20476;-72
2023/04/08 04:02:48;;;;;;;3.60;3.23;;;9.10;99.90;;;;;;5043428;28;20449;-71
2023/04/08 04:05:34;;;;;;;4.70;3.60;;;9.10;99.90;;;;;;5045129;28;20450;-73
2023/04/08 04:08:19;;;;;;;4.00;3.27;;;9.10;99.90;;;;;;5047805;28;20807;-72
2023/04/08 04:11:05;;;;;;;6.33;3.83;;;9.10;99.90;;;;;;5048491;28;20468;-73
2023/04/08 04:13:52;;;;;;;6.40;3.87;;;9.00;99.90;;;;;;5045832;28;20487;-72
2023/04/08 04:16:38;;;;;;;5.07;4.10;;;9.00;99.90;;;;;;5047123;28;20442;-72
2023/04/08 04:19:23;;;;;;;4.30;3.90;;;8.90;99.90;;;;;;5043829;28;20468;-72
2023/04/08 04:22:09;;;;;;;4.57;3.93;;;8.90;99.90;;;;;;5043049;28;20420;-72
2023/04/08 04:24:54;;;;;;;5.07;4.47;;;8.90;99.90;;;;;;5046934;28;20480;-73
2023/04/08 04:27:40;;;;;;;6.33;4.00;;;8.90;99.90;;;;;;5046193;28;20415;-73
2023/04/08 04:30:28;;;;;;;5.83;4.47;;;8.80;99.90;;;;;;5049289;28;20472;-72
2023/04/08 04:33:13;;;;;;;5.80;4.70;;;8.80;99.90;;;;;;5048310;28;20518;-73
2023/04/08 04:35:59;;;;;;;8.50;4.83;;;8.90;99.90;;;;;;5049039;28;20416;-73
2023/04/08 04:38:45;;;;;;;4.80;4.17;;;8.90;99.90;;;;;;5049355;28;20450;-72
2023/04/08 04:41:30;;;;;;;5.63;4.97;;;8.80;99.90;;;;;;5047330;28;20476;-71
2023/04/08 04:44:16;;;;;;;7.40;5.57;;;8.80;99.90;;;;;;5049967;28;20496;-70
2023/04/08 04:47:03;;;;;;;7.93;5.57;;;8.80;99.90;;;;;;5046228;28;20442;-71
2023/04/08 04:49:49;;;;;;;8.10;5.80;;;8.80;99.90;;;;;;5050380;28;20522;-72
2023/04/08 04:52:36;;;;;;;7.27;6.37;;;8.80;99.90;;;;;;5046865;28;20450;-73
2023/04/08 04:55:22;;;;;;;9.93;6.93;;;8.80;99.90;;;;;;5050988;28;20433;-73
2023/04/08 04:58:07;;;;;;;9.23;7.40;;;8.80;99.90;;;;;;5049447;28;20423;-72
2023/04/08 05:00:53;;;;;;;8.20;6.30;;;8.80;99.90;;;;;;5049766;28;20518;-73
2023/04/08 05:03:40;;;;;;;7.90;7.10;;;8.70;99.90;;;;;;5045642;28;20465;-73
2023/04/08 05:06:26;;;;;;;11.47;7.60;;;8.70;99.90;;;;;;5049538;28;20449;-73
2023/04/08 05:09:12;;;;;;;10.67;9.13;;;8.80;99.90;;;;;;5045822;28;20512;-73
2023/04/08 05:11:57;;;;;;;13.57;11.40;;;8.90;99.90;;;;;;5049014;28;20813;-72
2023/04/08 05:14:43;;;;;;;13.43;9.70;;;8.80;99.90;;;;;;5050654;28;20555;-73
2023/04/08 05:17:29;;;;;;;13.10;11.27;;;8.80;99.90;;;;;;5051264;28;20470;-71
2023/04/08 05:20:16;;;;;;;12.70;10.87;;;8.90;99.90;;;;;;5044519;28;20478;-73
2023/04/08 05:23:01;;;;;;;12.33;10.40;;;8.90;99.90;;;;;;5044271;28;20445;-72
2023/04/08 05:25:47;;;;;;;13.23;11.87;;;8.90;99.90;;;;;;5044807;28;20461;-73
2023/04/08 05:28:32;;;;;;;12.63;11.13;;;8.90;99.90;;;;;;5049264;28;20455;-73
2023/04/08 05:31:19;;;;;;;13.73;10.90;;;8.90;99.90;;;;;;5045055;28;20544;-72
2023/04/08 05:34:04;;;;;;;15.00;11.93;;;8.80;99.90;;;;;;5050930;28;20824;-73
2023/04/08 05:36:51;;;;;;;14.90;11.53;;;8.70;99.90;;;;;;5047556;28;20509;-72
2023/04/08 05:39:37;;;;;;;13.20;11.80;;;8.70;99.90;;;;;;5047164;28;20471;-73
2023/04/08 05:42:23;;;;;;;16.07;12.70;;;8.70;99.90;;;;;;5041274;28;20559;-71
2023/04/08 05:45:10;;;;;;;13.03;11.60;;;8.70;99.90;;;;;;5043982;28;20446;-72
2023/04/08 05:47:55;;;;;;;13.63;11.53;;;8.70;99.90;;;;;;5049027;28;20514;-72
2023/04/08 05:50:41;;;;;;;11.60;9.70;;;8.60;99.90;;;;;;5047026;28;20460;-73
2023/04/08 05:53:28;;;;;;;13.50;11.20;;;8.70;99.90;;;;;;5046233;28;21041;-72
2023/04/08 05:56:14;;;;;;;12.70;10.30;;;8.60;99.90;;;;;;5043861;28;20592;-71
2023/04/08 05:59:00;;;;;;;13.33;11.90;;;8.50;99.90;;;;;;5045856;28;20468;-72
2023/04/08 06:01:45;;;;;;;13.03;11.30;;;8.50;99.90;;;;;;5044482;28;20968;-72
2023/04/08 06:04:31;;;;;;;19.60;13.80;;;8.40;99.90;;;;;;5047348;28;20505;-73
2023/04/08 06:07:17;;;;;;;15.67;12.90;;;8.40;99.90;;;;;;5048943;28;20499;-72
2023/04/08 06:10:06;;;;;;;14.07;11.67;;;8.40;99.90;;;;;;5043792;28;20474;-72
2023/04/08 06:12:51;;;;;;;14.60;12.13;;;8.40;99.90;;;;;;5044406;28;21030;-72
2023/04/08 06:15:37;;;;;;;14.67;12.47;;;8.50;99.90;;;;;;5049577;28;20475;-72
2023/04/08 06:18:23;;;;;;;13.17;11.10;;;8.50;99.90;;;;;;5048953;28;20967;-72
2023/04/08 06:21:08;;;;;;;16.27;11.97;;;8.50;99.90;;;;;;5042503;28;20486;-73
2023/04/08 06:23:54;;;;;;;15.13;12.40;;;8.70;99.90;;;;;;5048286;28;21021;-73
2023/04/08 06:26:41;;;;;;;14.33;11.60;;;8.80;99.90;;;;;;5047343;28;20563;-72
2023/04/08 06:29:28;;;;;;;17.40;11.80;;;8.80;99.90;;;;;;5045927;28;20465;-72
2023/04/08 06:32:14;;;;;;;16.10;11.93;;;8.80;99.90;;;;;;5043772;28;20441;-71
2023/04/08 06:35:00;;;;;;;14.40;12.13;;;8.70;99.90;;;;;;5043824;28;20943;-72
2023/04/08 06:37:46;;;;;;;18.10;12.47;;;8.70;99.90;;;;;;5047123;28;20453;-73
2023/04/08 06:40:31;;;;;;;16.70;13.13;;;8.80;99.90;;;;;;5047067;28;20477;-72
2023/04/08 06:43:19;;;;;;;15.53;12.60;;;8.80;99.90;;;;;;5043500;28;20446;-71
2023/04/08 06:46:04;;;;;;;16.77;14.27;;;8.80;99.90;;;;;;5048927;28;20453;-72
2023/04/08 06:48:50;;;;;;;14.83;12.47;;;8.80;99.90;;;;;;5048429;28;20583;-72
2023/04/08 06:51:36;;;;;;;13.50;11.63;;;8.90;99.90;;;;;;5041840;28;21032;-72
2023/04/08 06:54:22;;;;;;;17.47;13.57;;;8.90;99.90;;;;;;5042991;28;20420;-71
2023/04/08 06:57:07;;;;;;;15.30;13.43;;;8.90;99.90;;;;;;5046194;28;20520;-73
2023/04/08 06:59:55;;;;;;;16.37;13.50;;;9.10;99.90;;;;;;5048076;28;20472;-71
2023/04/08 07:02:40;;;;;;;19.83;14.07;;;9.10;99.90;;;;;;5044523;28;20916;-72
2023/04/08 07:05:26;;;;;;;15.37;12.73;;;9.10;99.90;;;;;;5043337;28;20448;-73
2023/04/08 07:08:12;;;;;;;16.33;13.47;;;9.10;99.90;;;;;;5048688;28;20562;-71
2023/04/08 07:10:58;;;;;;;16.13;13.10;;;9.10;99.90;;;;;;5043660;28;20659;-72
2023/04/08 07:13:44;;;;;;;14.63;12.10;;;9.10;99.90;;;;;;5048337;28;20414;-73
2023/04/08 07:16:31;;;;;;;15.73;13.13;;;9.20;99.90;;;;;;5047896;28;20450;-72
2023/04/08 07:19:16;;;;;;;15.07;13.27;;;9.20;99.90;;;;;;5045210;28;20476;-73
2023/04/08 07:22:02;;;;;;;14.90;12.80;;;9.20;99.90;;;;;;5042454;28;20474;-73
2023/04/08 07:24:48;;;;;;;15.17;11.97;;;9.20;99.90;;;;;;5047900;28;20424;-72
2023/04/08 07:27:34;;;;;;;17.13;13.33;;;9.20;99.90;;;;;;5048837;28;20516;-73
2023/04/08 07:30:20;;;;;;;15.07;13.40;;;9.20;99.90;;;;;;5044309;28;20548;-72
2023/04/08 07:33:07;;;;;;;13.77;11.30;;;9.30;99.90;;;;;;5042519;28;20462;-71
2023/04/08 07:35:52;;;;;;;15.40;13.17;;;9.30;99.90;;;;;;5047593;28;20412;-72
2023/04/08 07:38:38;;;;;;;13.13;11.30;;;9.40;99.90;;;;;;5045625;28;20499;-72
2023/04/08 07:41:24;;;;;;;13.17;11.40;;;9.60;99.90;;;;;;5044284;28;20932;-72
2023/04/08 07:44:09;;;;;;;14.00;11.23;;;9.70;99.90;;;;;;5047268;28;20586;-72
2023/04/08 07:46:55;;;;;;;15.70;12.97;;;9.80;99.90;;;;;;5045104;28;20778;-74
2023/04/08 07:49:42;;;;;;;14.50;11.70;;;9.80;99.90;;;;;;5048135;28;20468;-69
2023/04/08 07:52:30;;;;;;;13.40;10.57;;;9.90;99.90;;;;;;5041809;28;21010;-72
2023/04/08 07:55:15;;;;;;;18.30;11.50;;;9.90;99.90;;;;;;5044261;28;20457;-72
2023/04/08 07:58:01;;;;;;;14.53;11.63;;;10.00;99.90;;;;;;5046699;28;20461;-73
2023/04/08 08:00:47;;;;;;;16.02;13.07;;;10.00;99.90;;;;;;5042288;28;20433;-73
2023/04/08 08:03:32;;;;;;;13.87;12.03;;;10.10;99.90;;;;;;5045596;28;20207;-72
2023/04/08 08:06:20;;;;;;;12.73;10.33;;;10.00;99.90;;;;;;5048697;28;20457;-72
2023/04/08 08:09:06;;;;;;;12.30;11.00;;;10.00;99.90;;;;;;5043178;28;20550;-70
2023/04/08 08:11:52;;;;;;;15.97;12.50;;;10.10;99.90;;;;;;5048652;28;20457;-72
2023/04/08 08:14:38;;;;;;;15.83;11.23;;;10.10;99.90;;;;;;5051546;28;20452;-72
2023/04/08 08:17:24;;;;;;;13.50;12.10;;;10.10;99.90;;;;;;5049569;28;20467;-72
2023/04/08 08:20:11;;;;;;;13.37;10.93;;;10.20;99.90;;;;;;5051953;28;20563;-72
2023/04/08 08:22:58;;;;;;;16.60;11.73;;;10.30;99.90;;;;;;5048834;28;20578;-72
2023/04/08 08:25:43;;;;;;;18.23;11.47;;;10.40;99.90;;;;;;5047667;28;20920;-72
2023/04/08 08:28:29;;;;;;;14.80;11.73;;;10.60;99.90;;;;;;5050466;28;20991;-69
2023/04/08 08:31:14;;;;;;;14.40;10.30;;;10.80;99.90;;;;;;5082602;22;20919;-87
2023/04/08 08:34:00;;;;;;;12.90;10.97;;;11.00;99.90;;;;;;5088463;28;20534;-86
2023/04/08 08:36:46;;;;;;;14.03;11.20;;;11.10;99.90;;;;;;5083553;28;20427;-88
2023/04/08 08:39:33;;;;;;;14.20;11.10;;;11.10;99.90;;;;;;5091505;28;20494;-87
2023/04/08 08:42:21;;;;;;;14.83;11.23;;;11.10;99.70;;;;;;5088752;28;20487;-87
2023/04/08 08:45:07;;;;;;;12.60;11.00;;;11.10;98.10;;;;;;5084227;28;20448;-87
2023/04/08 08:47:53;;;;;;;15.00;11.43;;;11.10;96.40;;;;;;5083072;28;20791;-87
2023/04/08 08:50:38;;;;;;;12.23;10.93;;;11.10;93.80;;;;;;5077754;28;20919;-87
2023/04/08 08:53:30;;;;;;;14.00;10.70;;;11.00;93.80;;;;;;5087053;28;20797;-87
2023/04/08 08:56:17;;;;;;;15.67;11.33;;;11.10;93.50;;;;;;5084768;28;20410;-88
2023/04/08 08:59:03;;;;;;;13.03;10.57;;;11.30;93.50;;;;;;5080193;28;20467;-88
2023/04/08 09:01:48;;;;;;;11.50;10.20;;;11.50;92.70;;;;;;5082086;28;20449;-87
2023/04/08 09:04:35;;;;;;;20.73;10.57;;;11.60;88.00;;;;;;5074455;28;20810;-88
2023/04/08 09:07:24;;;;;;;13.03;10.43;;;11.60;81.80;;;;;;5082928;28;20915;-87
2023/04/08 09:10:10;;;;;;;16.47;9.37;;;11.60;80.40;;;;;;5086126;28;20770;-87
2023/04/08 09:12:57;;;;;;;11.47;9.57;;;11.50;77.00;;;;;;5084003;28;20396;-86
2023/04/08 09:16:02;;;;;;;11.30;9.40;;;11.60;77.90;;;;;;5086450;28;20474;-88
2023/04/08 09:18:48;;;;;;;12.30;9.43;;;11.60;73.20;;;;;;5080061;28;20830;-87
2023/04/08 09:21:35;;;;;;;13.23;10.10;;;11.70;69.00;;;;;;5082033;28;20489;-90
2023/04/08 09:24:30;;;;;;;14.50;9.87;;;11.80;70.60;;;;;;5085108;28;20422;-88
2023/04/08 09:27:16;;;;;;;11.90;10.13;;;11.80;68.30;;;;;;5088600;28;20585;-88
2023/04/08 09:30:15;;;;;;;16.47;9.30;;;11.70;68.40;;;;;;5086691;28;21021;-87
2023/04/08 09:33:05;;;;;;;34.07;10.17;;;11.70;65.10;;;;;;5086663;28;20448;-87
2023/04/08 09:35:51;;;;;;;12.23;9.03;;;11.70;62.80;;;;;;5085589;28;20445;-88
2023/04/08 09:38:37;;;;;;;11.80;8.73;;;11.50;60.70;;;;;;5086154;28;20442;-88
2023/04/08 09:41:23;;;;;;;12.10;9.37;;;11.40;56.40;;;;;;5091788;28;20417;-88
2023/04/08 09:44:10;;;;;;;16.07;8.90;;;11.50;54.40;;;;;;5084123;28;20427;-88
2023/04/08 09:47:04;;;;;;;11.93;8.70;;;11.60;53.60;;;;;;5085037;28;20761;-89
2023/04/08 09:49:55;;;;;;;10.70;8.60;;;11.70;50.10;;;;;;5080531;28;20447;-89
2023/04/08 09:52:45;;;;;;;17.73;8.73;;;11.70;47.50;;;;;;5074835;28;20433;-88
2023/04/08 09:55:34;;;;;;;11.53;8.37;;;11.60;45.40;;;;;;5081119;28;20909;-88
2023/04/08 09:58:26;;;;;;;11.33;9.17;;;11.60;44.30;;;;;;5081337;28;20442;-88
2023/04/08 10:01:15;;;;;;;11.00;8.70;;;11.60;46.70;;;;;;5083718;28;20432;-89
2023/04/08 10:04:08;;;;;;;10.53;8.67;;;11.60;46.10;;;;;;5081052;28;20405;-89
2023/04/08 10:06:58;;;;;;;13.17;8.87;;;11.50;46.80;;;;;;5088103;28;20496;-88
2023/04/08 10:09:44;;;;;;;11.10;9.13;;;11.40;48.20;;;;;;5087907;28;20557;-88
2023/04/08 10:12:29;;;;;;;11.73;8.50;;;11.30;49.20;;;;;;5089064;28;20770;-88
2023/04/08 10:15:26;;;;;;;12.50;8.23;;;11.30;49.70;;;;;;5087735;28;20416;-88
2023/04/08 10:18:32;;;;;;;12.03;9.13;;;11.20;50.60;;;;;;5078584;28;20458;-88
2023/04/08 10:21:36;;;;;;;12.17;9.37;;;11.10;49.90;;;;;;5083982;28;20503;-88
2023/04/08 10:24:24;;;;;;;12.47;8.90;;;11.10;51.90;;;;;;5085138;28;20561;-88
2023/04/08 10:27:38;;;;;;;13.57;9.97;;;11.20;53.00;;;;;;5086517;28;20452;-89
2023/04/08 10:30:43;;;;;;;12.97;9.53;;;11.20;48.50;;;;;;5084146;28;20473;-88
2023/04/08 10:33:33;;;;;;;13.20;8.93;;;11.20;49.70;;;;;;5086790;28;20425;-88
2023/04/08 10:36:19;;;;;;;11.70;8.60;;;11.30;49.00;;;;;;5087005;28;21053;-88
2023/04/08 10:39:06;;;;;;;17.20;8.77;;;11.10;48.20;;;;;;5077118;28;20482;-88
2023/04/08 10:41:51;;;;;;;11.80;9.17;;;11.10;50.50;;;;;;5087503;28;20445;-88
2023/04/08 10:44:37;;;;;;;18.13;8.53;;;11.20;51.60;;;;;;5075950;28;20429;-88
2023/04/08 10:47:27;;;;;;;11.33;8.87;;;11.20;51.40;;;;;;5086142;28;20797;-88
2023/04/08 10:50:13;;;;;;;12.40;8.57;;;11.30;50.50;;;;;;5086073;28;20972;-88
2023/04/08 10:53:00;;;;;;;12.47;9.00;;;11.40;49.20;;;;;;5086109;28;21005;-88
2023/04/08 10:55:46;;;;;;;11.40;8.23;;;11.40;46.60;;;;;;5083487;28;20448;-88
2023/04/08 10:58:33;;;;;;;10.60;8.00;;;11.40;44.60;;;;;;5083346;28;20824;-88
2023/04/08 11:01:19;;;;;;;11.57;8.80;;;11.30;46.60;;;;;;5082436;28;20968;-89
2023/04/08 11:04:12;;;;;;;10.73;8.50;;;11.40;47.60;;;;;;5081105;28;20515;-88
2023/04/08 11:06:58;;;;;;;11.43;8.83;;;11.40;46.80;;;;;;5086322;28;20414;-89
2023/04/08 11:09:44;;;;;;;12.03;8.23;;;11.50;45.70;;;;;;5093957;28;20475;-88
2023/04/08 11:12:32;;;;;;;11.90;8.70;;;11.60;47.10;;;;;;5080595;28;20497;-88
2023/04/08 11:15:19;;;;;;;11.37;9.10;;;11.80;46.80;;;;;;5087386;28;20444;-89
2023/04/08 11:18:05;;;;;;;12.30;7.43;;;12.00;49.10;;;;;;5083268;28;20448;-89
2023/04/08 11:20:51;;;;;;;13.77;7.87;;;12.20;49.30;;;;;;5082017;28;20489;-89
2023/04/08 11:23:38;;;;;;;12.80;8.43;;;12.40;49.70;;;;;;5088230;28;20444;-88
2023/04/08 11:26:25;;;;;;;12.03;7.60;;;12.50;46.60;;;;;;5072588;28;20404;-88
2023/04/08 11:29:14;;;;;;;11.67;8.10;;;12.60;45.40;;;;;;5082698;28;20452;-88
2023/04/08 11:32:00;;;;;;;13.63;7.90;;;12.50;47.20;;;;;;5083136;28;20390;-88
2023/04/08 11:34:47;;;;;;;9.10;7.10;;;12.40;49.10;;;;;;5083527;28;20520;-88
2023/04/08 11:37:40;;;;;;;10.23;6.70;;;12.60;45.40;;;;;;5083779;28;20445;-89
2023/04/08 11:40:27;;;;;;;7.30;5.70;;;12.60;46.30;;;;;;5089925;28;20843;-89
2023/04/08 11:43:14;;;;;;;9.50;5.80;;;12.50;45.30;;;;;;5087663;28;20805;-88
2023/04/08 11:46:01;;;;;;;9.60;7.03;;;12.50;46.50;;;;;;5090979;28;20642;-88
2023/04/08 11:49:04;;;;;;;9.20;6.77;;;12.60;45.50;;;;;;5088050;28;20446;-88
2023/04/08 11:51:58;;;;;;;8.03;6.20;;;12.60;45.40;;;;;;5092160;28;20497;-88
2023/04/08 11:54:43;;;;;;;9.07;7.70;;;12.80;46.70;;;;;;5092415;28;20414;-88
2023/04/08 11:57:30;;;;;;;17.33;6.73;;;13.00;46.80;;;;;;5083077;28;20993;-89
2023/04/08 12:00:16;;;;;;;11.17;8.03;;;13.40;46.30;;;;;;5088688;28;20447;-88
2023/04/08 12:03:02;;;;;;;8.83;6.60;;;13.60;42.20;;;;;;5091690;28;20507;-90
2023/04/08 12:05:48;;;;;;;16.67;8.13;;;13.70;43.50;;;;;;5089769;28;21012;-89
2023/04/08 12:08:34;;;;;;;11.50;7.30;;;13.70;43.40;;;;;;5085487;28;20466;-89
2023/04/08 12:11:20;;;;;;;10.13;7.07;;;13.70;45.40;;;;;;5093377;28;20947;-88
2023/04/08 12:14:05;;;;;;;10.60;7.67;;;13.40;43.10;;;;;;5093696;28;20408;-88
2023/04/08 12:16:51;;;;;;;7.93;6.90;;;13.20;45.50;;;;;;5082256;28;20433;-88
2023/04/08 12:19:38;;;;;;;7.80;6.30;;;13.10;45.20;;;;;;5084936;28;20504;-88
2023/04/08 12:22:24;;;;;;;10.40;7.40;;;13.00;46.40;;;;;;5083684;28;20503;-88
2023/04/08 12:25:10;;;;;;;10.10;7.03;;;12.90;45.70;;;;;;5089054;28;20423;-88
2023/04/08 12:27:55;;;;;;;9.93;6.10;;;13.00;49.30;;;;;;5090715;28;20427;-88
2023/04/08 12:30:41;;;;;;;8.53;7.30;;;13.20;50.50;;;;;;5081948;28;20434;-88
2023/04/08 12:33:27;;;;;;;11.97;6.90;;;13.40;49.30;;;;;;5091860;28;20447;-87
2023/04/08 12:36:14;;;;;;;9.77;6.87;;;13.60;48.20;;;;;;5088499;28;20433;-88
2023/04/08 12:38:59;;;;;;;7.60;6.17;;;13.60;47.50;;;;;;5082692;28;20426;-87
2023/04/08 12:41:45;;;;;;;11.90;7.00;;;13.70;47.60;;;;;;5085274;28;20771;-87
2023/04/08 12:44:31;;;;;;;7.80;6.50;;;13.50;47.20;;;;;;5085160;28;20817;-88
2023/04/08 12:47:16;;;;;;;9.87;7.00;;;13.80;48.50;;;;;;5082150;28;20418;-88
2023/04/08 12:50:02;;;;;;;10.00;6.40;;;14.10;48.70;;;;;;5081935;28;20546;-87
2023/04/08 12:52:49;;;;;;;8.30;6.37;;;14.60;47.50;;;;;;5089163;28;20454;-87
2023/04/08 12:55:37;;;;;;;6.63;5.37;;;15.00;46.90;;;;;;5088971;28;20464;-88
2023/04/08 12:58:25;;;;;;;6.03;4.87;;;14.90;41.10;;;;;;5082619;28;20528;-87
2023/04/08 13:01:11;;;;;;;7.07;5.27;;;14.70;43.20;;;;;;5079792;28;20559;-88
2023/04/08 13:03:56;;;;;;;6.60;4.57;;;15.00;46.90;;;;;;5079659;28;20443;-88
2023/04/08 13:06:42;;;;;;;8.40;4.67;;;15.60;45.70;;;;;;5081086;28;20425;-88
2023/04/08 13:09:29;;;;;;;7.10;5.23;;;16.00;40.80;;;;;;5082866;28;20641;-87
2023/04/08 13:12:16;;;;;;;8.20;4.73;;;16.10;41.00;;;;;;5083258;28;20424;-88
2023/04/08 13:15:01;;;;;;;7.37;5.20;;;16.20;39.00;;;;;;5088830;28;20442;-87
2023/04/08 13:17:47;;;;;;;7.70;5.23;;;16.40;39.00;;;;;;5079596;28;20478;-88
2023/04/08 13:20:34;;;;;;;5.50;3.60;;;16.40;36.00;;;;;;5080916;28;20412;-87
2023/04/08 13:23:20;;;;;;;8.37;5.27;;;16.10;38.80;;;;;;5086165;28;21048;-88
2023/04/08 13:26:07;;;;;;;8.10;5.23;;;15.70;38.60;;;;;;5086623;28;20444;-88
2023/04/08 13:28:52;;;;;;;7.83;4.67;;;15.40;41.30;;;;;;5083682;28;20408;-87
2023/04/08 13:31:38;;;;;;;7.60;4.30;;;15.10;44.60;;;;;;5083554;28;20420;-88
2023/04/08 13:34:23;;;;;;;8.00;5.80;;;14.90;45.00;;;;;;5078300;28;20916;-88
2023/04/08 13:37:09;;;;;;;8.97;5.33;;;14.80;47.10;;;;;;5077750;28;20522;-87
2023/04/08 13:39:55;;;;;;;8.27;4.90;;;14.60;47.70;;;;;;5081620;28;20452;-88
2023/04/08 13:42:42;;;;;;;5.53;4.50;;;14.50;48.40;;;;;;5087423;28;20446;-87
2023/04/08 13:45:36;;;;;;;7.70;5.50;;;14.20;48.30;;;;;;5077102;28;20420;-88
2023/04/08 13:48:21;;;;;;;7.13;5.40;;;14.10;50.60;;;;;;5084745;28;20465;-87
2023/04/08 13:51:07;;;;;;;6.70;5.10;;;14.10;50.80;;;;;;5082553;28;20478;-88
2023/04/08 13:53:53;;;;;;;7.20;5.10;;;14.00;52.10;;;;;;5088268;28;20445;-88
2023/04/08 13:56:38;;;;;;;8.00;5.40;;;14.00;53.90;;;;;;5080934;28;20971;-88
2023/04/08 13:59:25;;;;;;;9.70;5.63;;;13.80;52.10;;;;;;5085962;28;20486;-88
2023/04/08 14:02:11;;;;;;;10.10;4.70;;;13.70;54.40;;;;;;5080441;28;20418;-87
2023/04/08 14:04:57;;;;;;;8.77;5.00;;;13.60;54.30;;;;;;5086339;28;20448;-87
2023/04/08 14:07:42;;;;;;;6.20;4.57;;;13.70;54.70;;;;;;5089821;28;20459;-88
2023/04/08 14:10:28;;;;;;;6.37;4.40;;;13.70;54.90;;;;;;5084596;28;20546;-88
2023/04/08 14:13:14;;;;;;;7.80;5.60;;;13.70;54.30;;;;;;5078259;28;20447;-89
2023/04/08 14:16:01;;;;;;;8.77;4.93;;;13.60;53.50;;;;;;5078085;28;20472;-88
2023/04/08 14:18:47;;;;;;;9.77;5.03;;;13.50;53.60;;;;;;5095478;22;20471;-74
2023/04/08 14:21:33;;;;;;;9.43;5.27;;;13.40;53.30;;;;;;5085857;28;20480;-74
2023/04/08 14:24:18;;;;;;;6.93;5.30;;;13.30;54.00;;;;;;5086447;28;20442;-74
2023/04/08 14:27:04;;;;;;;6.93;5.27;;;13.20;53.80;;;;;;5077483;28;20462;-74